Latest Weather Observations for Hillarys Point Boat Harbour

IDW60901

Issued at 8:31 pm WST Monday 5 December 2016 (issued every 10 minutes, with the page automatically refreshed every 10 minutes)

About weather observations | Map of Perth area stations | Latest observations for Perth area | Other Formats
Station Details ID: 009265 Name: HILLARYS BOAT HARBOUR NTC AWS Lat: -31.83 Lon: 115.74 Height: 0.0 m
Data from the previous 72 hours. | See also: Recent months for locations in Western Australia
Date/Time
WST
Temp
°C
App
Temp
°C
Dew
Point
°C
Rel
Hum
%
Delta-T
°C
Wind Press
QNH
hPa
Press
MSL
hPa
Rain since
9am
mm
Dir  Spd
km/h
Gust
km/h
Spd
kts
Gust
kts
05/08:30pm 18.9 - - - - SSW 13 30 7 16 1015.9 1015.9 -
05/08:00pm 18.9 - - - - SSW 19 33 10 18 1015.8 1015.8 -
05/07:30pm 19.1 - - - - SSW 17 30 9 16 1015.8 1015.8 -
05/07:00pm 19.1 - - - - SSW 22 37 12 20 1015.6 1015.6 -
05/06:30pm 19.3 - - - - SSW 20 35 11 19 1015.4 1015.4 -
05/06:00pm 19.4 - - - - SSW 17 32 9 17 1015.0 1015.0 -
05/05:30pm 19.3 - - - - SSW 20 33 11 18 1014.6 1014.6 -
05/05:00pm 19.4 - - - - SSW 19 35 10 19 1014.5 1014.5 -
05/04:30pm 19.1 - - - - SSW 19 35 10 19 1014.3 1014.3 -
05/04:00pm 19.3 - - - - SSW 19 33 10 18 1014.4 1014.4 -
05/03:30pm 19.3 - - - - SSW 19 35 10 19 1014.3 1014.3 -
05/03:00pm 19.4 - - - - SW 19 39 10 21 1014.1 1014.1 -
05/02:30pm 19.3 - - - - SSW 20 33 11 18 1014.1 1014.1 -
05/02:00pm 19.5 - - - - SSW 20 32 11 17 1014.1 1014.1 -
05/01:30pm 19.4 - - - - SSW 20 37 11 20 1014.1 1014.1 -
05/01:00pm 19.5 - - - - SSW 19 32 10 17 1014.1 1014.1 -
05/12:30pm 19.7 - - - - SSW 17 28 9 15 1013.9 1013.9 -
05/12:00pm 19.4 - - - - SSW 17 30 9 16 1014.1 1014.1 -
05/11:30am 19.5 - - - - SSW 17 30 9 16 1014.2 1014.2 -
05/11:00am 19.4 - - - - SSW 15 24 8 13 1014.1 1014.1 -
05/10:30am 19.1 - - - - SSW 13 24 7 13 1014.4 1014.4 -
05/10:00am 19.0 - - - - SSW 11 20 6 11 1014.5 1014.5 -
05/09:30am 18.7 - - - - SSW 7 19 4 10 1014.7 1014.7 -
05/09:00am 18.3 - - - - SSE 11 19 6 10 1015.0 1015.0 -
05/08:30am 18.6 - - - - SE 7 20 4 11 1015.0 1015.0 -
05/08:00am 16.9 - - - - ESE 7 19 4 10 1015.2 1015.2 -
05/07:30am 16.5 - - - - SE 11 24 6 13 1015.4 1015.4 -
05/07:00am 15.9 - - - - SSE 13 24 7 13 1015.4 1015.4 -
05/06:30am 15.9 - - - - S 9 22 5 12 1015.5 1015.5 -
05/06:00am 15.4 - - - - S 9 24 5 13 1015.1 1015.1 -
05/05:30am 15.1 - - - - S 7 20 4 11 1014.9 1014.9 -
05/05:00am 14.9 - - - - SSE 9 20 5 11 1014.2 1014.2 -
05/04:30am 14.8 - - - - SSE 9 17 5 9 1013.9 1013.9 -
05/04:00am 15.2 - - - - S 9 20 5 11 1013.8 1013.8 -
05/03:30am 15.8 - - - - S 11 26 6 14 1013.6 1013.6 -
05/03:00am 16.3 - - - - S 11 28 6 15 1013.5 1013.5 -
05/02:30am 16.6 - - - - S 13 28 7 15 1013.2 1013.2 -
05/02:00am 16.9 - - - - S 11 28 6 15 1013.2 1013.2 -
05/01:30am 17.2 - - - - S 9 20 5 11 1013.1 1013.1 -
05/01:00am 17.4 - - - - S 9 20 5 11 1013.0 1013.0 -
05/12:30am 17.6 - - - - S 9 32 5 17 1013.1 1013.1 -
05/12:00am 17.6 - - - - SSE 11 20 6 11 1013.2 1013.2 -
 
Date/Time
WST
Temp
°C
App
Temp
°C
Dew
Point
°C
Rel
Hum
%
Delta-T
°C
Wind Press
QNH
hPa
Press
MSL
hPa
Rain since
9am
mm
Dir  Spd
km/h
Gust
km/h
Spd
kts
Gust
kts
04/11:30pm 18.1 - - - - S 9 24 5 13 1013.3 1013.3 -
04/11:00pm 18.0 - - - - S 7 20 4 11 1013.4 1013.4 -
04/10:30pm 18.3 - - - - SSW 11 26 6 14 1013.5 1013.5 -
04/10:00pm 18.2 - - - - SSW 11 24 6 13 1013.7 1013.7 -
04/09:30pm 18.3 - - - - SSW 13 26 7 14 1013.9 1013.9 -
04/09:00pm 18.4 - - - - SSW 15 32 8 17 1013.9 1013.9 -
04/08:30pm 18.3 - - - - SSW 13 28 7 15 1013.6 1013.6 -
04/08:00pm 18.4 - - - - SSW 19 32 10 17 1013.5 1013.5 -
04/07:30pm 18.4 - - - - SSW 15 32 8 17 1013.5 1013.5 -
04/07:00pm 18.6 - - - - SSW 17 35 9 19 1013.3 1013.3 -
04/06:30pm 18.8 - - - - SSW 19 32 10 17 1013.2 1013.2 -
04/06:00pm 19.0 - - - - SSW 19 32 10 17 1012.9 1012.9 -
04/05:30pm 19.2 - - - - SSW 19 28 10 15 1012.6 1012.6 -
04/05:00pm 19.2 - - - - SSW 17 30 9 16 1012.4 1012.4 -
04/04:30pm 19.4 - - - - SSW 17 28 9 15 1012.5 1012.5 -
04/04:00pm 19.2 - - - - SSW 17 30 9 16 1012.4 1012.4 -
04/03:30pm 18.8 - - - - SSW 17 26 9 14 1012.5 1012.5 -
04/03:00pm 19.3 - - - - SW 19 32 10 17 1012.9 1012.9 -
04/02:30pm 18.9 - - - - SW 17 28 9 15 1013.0 1013.0 -
04/02:00pm 19.0 - - - - SW 19 33 10 18 1013.3 1013.3 -
04/01:30pm 18.9 - - - - SW 20 30 11 16 1013.4 1013.4 -
04/01:00pm 19.0 - - - - SW 19 30 10 16 1013.7 1013.7 -
04/12:30pm 18.5 - - - - SW 20 32 11 17 1013.9 1013.9 -
04/12:00pm 18.7 - - - - SSW 15 26 8 14 1014.1 1014.1 -
04/11:30am 19.0 - - - - SW 13 24 7 13 1014.2 1014.2 -
04/11:00am 18.5 - - - - SW 11 20 6 11 1014.4 1014.4 -
04/10:30am 18.6 - - - - SSW 9 19 5 10 1014.6 1014.6 -
04/10:00am 18.3 - - - - S 7 20 4 11 1014.8 1014.8 -
04/09:30am 18.2 - - - - S 7 19 4 10 1015.0 1015.0 -
04/09:00am 17.6 - - - - S 9 26 5 14 1014.9 1014.9 -
04/08:30am 17.6 - - - - SE 7 22 4 12 1014.9 1014.9 -
04/08:00am 17.3 - - - - SSE 15 28 8 15 1014.7 1014.7 -
04/07:30am 17.0 - - - - SSE 13 24 7 13 1014.5 1014.5 -
04/07:00am 16.6 - - - - SE 11 24 6 13 1014.2 1014.2 -
04/06:30am 16.1 - - - - SE 9 26 5 14 1014.0 1014.0 -
04/06:00am 15.9 - - - - SE 6 17 3 9 1013.5 1013.5 -
04/05:30am 16.3 - - - - SE 9 24 5 13 1013.3 1013.3 -
04/05:00am 16.4 - - - - SSE 15 28 8 15 1012.9 1012.9 -
04/04:30am 16.4 - - - - SSE 13 24 7 13 1012.3 1012.3 -
04/04:00am 16.3 - - - - SSE 11 20 6 11 1011.9 1011.9 -
04/03:30am 17.1 - - - - SSE 7 19 4 10 1011.5 1011.5 -
04/03:00am 18.3 - - - - SSW 11 22 6 12 1011.2 1011.2 -
04/02:30am 18.3 - - - - SSW 13 32 7 17 1010.9 1010.9 -
04/02:00am 18.5 - - - - SSW 17 30 9 16 1010.8 1010.8 -
04/01:30am 18.6 - - - - SSW 15 32 8 17 1010.7 1010.7 -
04/01:00am 18.9 - - - - SSW 17 30 9 16 1010.6 1010.6 -
04/12:30am 18.8 - - - - SSW 13 32 7 17 1010.6 1010.6 -
04/12:00am 18.9 - - - - SSW 15 32 8 17 1010.7 1010.7 -
 
Date/Time
WST
Temp
°C
App
Temp
°C
Dew
Point
°C
Rel
Hum
%
Delta-T
°C
Wind Press
QNH
hPa
Press
MSL
hPa
Rain since
9am
mm
Dir  Spd
km/h
Gust
km/h
Spd
kts
Gust
kts
03/11:30pm 19.4 - - - - SSW 13 24 7 13 1010.7 1010.7 -
03/11:00pm 19.3 - - - - SSW 11 20 6 11 1010.7 1010.7 -
03/10:30pm 19.5 - - - - SW 13 22 7 12 1010.7 1010.7 -
03/10:00pm 19.6 - - - - SW 15 24 8 13 1010.7 1010.7 -
03/09:30pm 19.6 - - - - SW 13 22 7 12 1010.6 1010.6 -
03/09:00pm 19.8 - - - - SSW 15 24 8 13 1010.6 1010.6 -
03/08:30pm 19.9 - - - - SW 13 26 7 14 1010.4 1010.4 -
03/08:00pm 19.9 - - - - SW 19 28 10 15 1010.1 1010.1 -
03/07:30pm 19.9 - - - - SW 19 28 10 15 1009.9 1009.9 -
03/07:00pm 19.7 - - - - SW 20 30 11 16 1009.7 1009.7 -
03/06:30pm 19.3 - - - - SW 22 33 12 18 1009.4 1009.4 -
03/06:00pm 18.3 - - - - WSW 32 44 17 24 1009.2 1009.2 -
03/05:58pm 18.3 - - - - WSW 28 44 15 24 1009.1 1009.1 -
03/05:30pm 19.9 - - - - W 15 22 8 12 1008.9 1008.9 -
03/05:00pm 20.1 - - - - WSW 17 28 9 15 1008.8 1008.8 -
03/04:30pm 20.1 - - - - W 15 24 8 13 1008.6 1008.6 -
03/04:00pm 19.2 - - - - W 15 22 8 12 1008.7 1008.7 -
03/03:30pm 19.9 - - - - W 15 24 8 13 1008.7 1008.7 -
03/03:00pm 19.9 - - - - W 15 22 8 12 1008.7 1008.7 -
03/02:30pm 19.8 - - - - W 15 22 8 12 1008.8 1008.8 -
03/02:00pm 19.8 - - - - W 13 19 7 10 1008.8 1008.8 -
03/01:30pm 19.3 - - - - WSW 15 22 8 12 1009.0 1009.0 -
03/01:00pm 19.4 - - - - WSW 15 22 8 12 1008.9 1008.9 -
03/12:30pm 19.0 - - - - WSW 19 26 10 14 1009.0 1009.0 -
03/12:00pm 19.0 - - - - WSW 15 26 8 14 1009.2 1009.2 -
03/11:30am 18.9 - - - - WSW 15 24 8 13 1009.3 1009.3 -
03/11:00am 18.5 - - - - WSW 13 20 7 11 1009.4 1009.4 -
03/10:30am 18.5 - - - - WSW 17 22 9 12 1009.3 1009.3 -
03/10:00am 18.6 - - - - SW 13 22 7 12 1009.3 1009.3 -
03/09:30am 18.5 - - - - SW 13 20 7 11 1009.1 1009.1 -
03/09:00am 18.3 - - - - SW 13 22 7 12 1009.0 1009.0 -
03/08:30am 18.2 - - - - SW 17 22 9 12 1009.0 1009.0 -
03/08:00am 18.4 - - - - SW 11 20 6 11 1009.0 1009.0 -
03/07:30am 17.9 - - - - SSW 11 20 6 11 1008.7 1008.7 -
03/07:00am 18.2 - - - - SSW 7 19 4 10 1008.4 1008.4 -
03/06:30am 17.6 - - - - SW 11 20 6 11 1008.3 1008.3 -
03/06:00am 17.5 - - - - SSW 13 20 7 11 1007.9 1007.9 -
03/05:30am 17.5 - - - - SW 15 26 8 14 1007.7 1007.7 -
03/05:00am 17.6 - - - - SSW 13 20 7 11 1007.4 1007.4 -
03/04:30am 17.5 - - - - SSW 15 24 8 13 1007.1 1007.1 -
03/04:00am 17.6 - - - - SSW 13 24 7 13 1007.0 1007.0 -
03/03:30am 17.7 - - - - SW 17 28 9 15 1007.0 1007.0 -
03/03:00am 17.9 - - - - SSW 15 28 8 15 1006.9 1006.9 -
03/02:30am 18.1 - - - - SW 15 24 8 13 1007.1 1007.1 -
03/02:00am 18.3 - - - - SSW 15 28 8 15 1007.0 1007.0 -
03/01:30am 18.4 - - - - SSW 15 26 8 14 1007.1 1007.1 -
03/01:00am 18.6 - - - - SSW 15 30 8 16 1007.3 1007.3 -
03/12:30am 18.6 - - - - SSW 17 28 9 15 1007.9 1007.9 -
03/12:00am 18.8 - - - - SSW 15 24 8 13 1008.2 1008.2 -
 
Date/Time
WST
Temp
°C
App
Temp
°C
Dew
Point
°C
Rel
Hum
%
Delta-T
°C
Wind Press
QNH
hPa
Press
MSL
hPa
Rain since
9am
mm
Dir  Spd
km/h
Gust
km/h
Spd
kts
Gust
kts
02/11:30pm 18.6 - - - - SSW 15 26 8 14 1008.2 1008.2 -
02/11:00pm 18.7 - - - - SSW 15 26 8 14 1008.5 1008.5 -
02/10:30pm 18.6 - - - - SW 15 26 8 14 1008.6 1008.6 -
02/10:00pm 18.7 - - - - SSW 11 22 6 12 1008.9 1008.9 -
02/09:30pm 19.0 - - - - SSW 13 22 7 12 1008.8 1008.8 -
02/09:00pm 19.0 - - - - SSW 9 19 5 10 1008.7 1008.7 -

Latest Capital City Observations: Canberra | Sydney | Melbourne | Brisbane | Adelaide | Perth | Hobart | Darwin

Other Formats:

Comma delimited format used in spreadsheet applications
http://www.bom.gov.au/fwo/IDW60901/IDW60901.95605.axf

JavaScript Object Notation format (JSON) in row-major order
http://www.bom.gov.au/fwo/IDW60901/IDW60901.95605.json